Time;durP1;ratioP1;P1;durP2;ratioP2;P2;SDS_P1;SDS_P2;PMS_P1;PMS_P2;Temp;Humidity;BMP_temperature;BMP_pressure;BME280_temperature;BME280_humidity;BME280_pressure;Samples;Min_cycle;Max_cycle;Signal;HPM_P1;HPM_P2
2021/04/19 00:07:51;;;;;;;8.30;4.07;;;1.60;99.90;;;;;;21072831;28;20062;-46
2021/04/19 00:17:53;;;;;;;7.18;4.32;;;1.80;99.90;;;;;;21053088;28;20048;-44
2021/04/19 00:27:55;;;;;;;7.57;4.32;;;1.90;99.90;;;;;;20973279;28;20082;-44
2021/04/19 00:37:57;;;;;;;6.03;3.67;;;1.70;99.90;;;;;;21004732;28;20033;-48
2021/04/19 00:47:58;;;;;;;6.03;3.75;;;1.70;99.90;;;;;;21003939;28;20553;-44
2021/04/19 00:58:00;;;;;;;7.07;3.13;;;1.50;99.90;;;;;;21003168;28;20094;-44
2021/04/19 01:08:03;;;;;;;7.32;4.72;;;1.30;99.90;;;;;;21002419;28;20399;-44
2021/04/19 01:18:06;;;;;;;6.05;3.33;;;1.50;99.90;;;;;;21022152;28;20119;-45
2021/04/19 01:28:09;;;;;;;5.75;3.42;;;1.50;99.90;;;;;;21084621;28;20499;-44
2021/04/19 01:38:14;;;;;;;5.28;3.17;;;1.60;99.90;;;;;;21064770;28;20040;-44
2021/04/19 01:48:21;;;;;;;5.60;3.67;;;1.60;99.90;;;;;;21065028;28;20406;-47
2021/04/19 01:58:26;;;;;;;5.22;3.60;;;1.80;99.90;;;;;;21027884;28;20102;-45
2021/04/19 02:08:51;;;;;;;7.60;4.70;;;1.80;99.90;;;;;;20979948;28;20545;-44
2021/04/19 02:19:32;;;;;;;9.15;6.15;;;1.70;99.90;;;;;;21006254;28;20348;-44
2021/04/19 02:29:40;;;;;;;9.53;6.03;;;1.60;99.90;;;;;;21061760;28;20043;-48
2021/04/19 02:39:47;;;;;;;8.90;5.45;;;1.30;99.90;;;;;;21078629;28;20043;-45
2021/04/19 02:49:49;;;;;;;6.85;4.32;;;1.30;99.90;;;;;;21078174;28;20031;-44
2021/04/19 02:59:53;;;;;;;6.50;4.13;;;1.30;99.90;;;;;;21077119;28;20066;-47
2021/04/19 03:10:00;;;;;;;7.45;4.57;;;1.20;99.90;;;;;;21058138;28;20097;-44
2021/04/19 03:20:10;;;;;;;7.32;4.07;;;1.00;99.90;;;;;;21020467;28;20090;-44
2021/04/19 03:30:24;;;;;;;7.55;4.40;;;1.00;99.90;;;;;;20973349;28;20089;-45
2021/04/19 03:40:34;;;;;;;7.15;4.30;;;1.00;99.90;;;;;;20972834;28;20029;-44
2021/04/19 03:50:46;;;;;;;7.50;4.80;;;0.80;99.90;;;;;;20990200;28;20036;-43
2021/04/19 04:00:50;;;;;;;8.77;5.85;;;0.90;99.90;;;;;;20971502;28;20550;-43
2021/04/19 04:11:11;;;;;;;7.97;5.50;;;0.90;99.90;;;;;;20971182;28;20053;-44
2021/04/19 04:21:14;;;;;;;7.90;5.70;;;0.90;99.90;;;;;;21017206;28;20387;-44
2021/04/19 04:31:21;;;;;;;7.05;4.53;;;1.10;99.90;;;;;;20981796;28;20231;-44
2021/04/19 04:41:35;;;;;;;6.93;4.57;;;1.20;99.90;;;;;;20970055;28;20104;-44
2021/04/19 04:51:39;;;;;;;6.53;4.07;;;1.30;99.90;;;;;;20987490;28;20036;-50
2021/04/19 05:01:44;;;;;;;6.50;3.90;;;1.40;99.90;;;;;;20987169;28;20484;-43
2021/04/19 05:11:47;;;;;;;4.90;3.35;;;1.50;99.90;;;;;;20987063;28;20102;-44
2021/04/19 05:21:49;;;;;;;4.45;2.58;;;1.70;99.90;;;;;;21051432;28;20113;-44
2021/04/19 05:31:50;;;;;;;3.75;2.38;;;2.00;99.90;;;;;;21084487;28;20044;-47
2021/04/19 05:41:52;;;;;;;5.15;2.75;;;2.50;99.90;;;;;;21083456;28;20040;-44
2021/04/19 05:51:58;;;;;;;4.72;2.75;;;2.80;99.90;;;;;;21064980;28;20028;-46
2021/04/19 06:02:01;;;;;;;3.88;2.85;;;3.00;99.90;;;;;;20999815;28;20067;-46
2021/04/19 06:12:10;;;;;;;4.70;3.30;;;3.30;99.90;;;;;;20997989;28;20044;-45
2021/04/19 06:22:19;;;;;;;4.38;2.67;;;3.30;99.90;;;;;;21034902;28;20057;-50
2021/04/19 06:32:22;;;;;;;2.53;1.98;;;3.70;99.90;;;;;;21079643;28;20040;-45
2021/04/19 06:42:24;;;;;;;3.15;2.40;;;4.30;99.90;;;;;;21079045;28;20044;-44
2021/04/19 06:52:26;;;;;;;4.03;2.70;;;5.30;99.90;;;;;;21077920;28;20044;-44
2021/04/19 07:02:32;;;;;;;3.03;2.28;;;5.40;99.90;;;;;;21077242;28;20097;-47
2021/04/19 07:12:36;;;;;;;3.85;2.20;;;6.00;99.90;;;;;;21076508;28;20369;-44
2021/04/19 07:22:38;;;;;;;3.15;2.22;;;6.00;99.90;;;;;;21016938;28;20082;-44
2021/04/19 07:32:41;;;;;;;3.42;2.33;;;6.60;99.90;;;;;;20991255;28;20040;-45
2021/04/19 07:42:43;;;;;;;4.53;2.88;;;7.20;98.30;;;;;;20989917;28;20085;-46
2021/04/19 07:52:51;;;;;;;3.53;2.85;;;6.70;99.90;;;;;;20990111;28;20066;-45
2021/04/19 08:03:10;;;;;;;3.70;2.85;;;7.50;99.50;;;;;;20989597;28;20082;-48
2021/04/19 08:13:15;;;;;;;4.13;3.03;;;8.20;95.30;;;;;;20989844;28;20056;-45
2021/04/19 08:23:18;;;;;;;5.15;3.38;;;8.80;93.90;;;;;;21052327;28;20032;-44
2021/04/19 08:33:21;;;;;;;3.88;2.88;;;8.30;91.90;;;;;;21071996;28;20061;-45
2021/04/19 08:43:24;;;;;;;4.57;3.08;;;7.10;90.50;;;;;;21071398;28;20077;-44
2021/04/19 08:53:27;;;;;;;4.78;3.20;;;5.90;91.40;;;;;;21063572;28;20105;-43
2021/04/19 09:03:29;;;;;;;4.88;3.30;;;5.50;97.70;;;;;;21087017;28;20483;-46
2021/04/19 09:13:38;;;;;;;4.25;2.95;;;5.60;94.40;;;;;;21086343;28;20044;-46
2021/04/19 09:23:55;;;;;;;5.00;3.50;;;5.70;94.10;;;;;;21016997;28;20037;-44
2021/04/19 09:34:12;;;;;;;5.07;3.80;;;6.50;94.10;;;;;;20983031;28;20082;-44
2021/04/19 09:44:27;;;;;;;4.97;3.60;;;7.10;97.10;;;;;;21000000;28;20037;-43
2021/04/19 09:54:29;;;;;;;4.97;3.70;;;7.60;96.70;;;;;;20998776;28;20552;-43
2021/04/19 10:04:41;;;;;;;5.13;3.72;;;7.70;93.30;;;;;;20997707;28;20109;-43
2021/04/19 10:14:43;;;;;;;7.20;5.20;;;8.00;94.70;;;;;;20997445;28;20040;-49
2021/04/19 10:24:56;;;;;;;5.28;4.43;;;8.10;99.90;;;;;;21072838;28;20086;-44
2021/04/19 10:34:58;;;;;;;6.32;4.75;;;8.30;97.00;;;;;;21079795;28;20039;-44
2021/04/19 10:45:08;;;;;;;6.85;4.57;;;8.10;99.90;;;;;;21079145;28;20102;-45
2021/04/19 10:55:11;;;;;;;5.80;4.47;;;10.00;97.10;;;;;;21078049;28;20040;-44
2021/04/19 11:05:14;;;;;;;7.25;5.00;;;10.80;96.20;;;;;;21077231;28;20031;-44
2021/04/19 11:15:16;;;;;;;8.40;6.57;;;11.00;94.90;;;;;;21075533;28;20563;-48
2021/04/19 11:25:26;;;;;;;8.27;6.45;;;10.10;97.30;;;;;;20994501;28;20094;-44
2021/04/19 11:35:35;;;;;;;10.23;7.17;;;9.40;96.80;;;;;;20991372;28;20043;-43
2021/04/19 11:45:37;;;;;;;10.05;7.22;;;9.00;98.80;;;;;;20990841;28;20040;-46
2021/04/19 11:55:39;;;;;;;10.15;7.05;;;8.70;99.60;;;;;;20990195;28;20094;-44
2021/04/19 12:05:41;;;;;;;9.95;6.82;;;7.60;99.90;;;;;;20989837;28;20442;-43
2021/04/19 12:15:43;;;;;;;11.57;8.07;;;6.90;99.90;;;;;;20989634;28;20052;-48
2021/04/19 12:25:50;;;;;;;12.57;7.30;;;6.20;99.90;;;;;;21053079;28;20029;-44
2021/04/19 12:35:52;;;;;;;9.95;6.75;;;5.50;99.90;;;;;;21005546;28;20032;-43
2021/04/19 12:45:53;;;;;;;11.85;8.18;;;4.50;99.90;;;;;;21004534;28;20090;-44
2021/04/19 12:55:55;;;;;;;12.55;8.63;;;4.20;99.90;;;;;;21003773;28;20032;-50
2021/04/19 13:05:57;;;;;;;11.43;7.93;;;6.30;99.90;;;;;;21002979;28;20032;-43
2021/04/19 13:15:59;;;;;;;12.68;8.73;;;7.10;99.90;;;;;;21005154;28;20445;-43
2021/04/19 13:26:01;;;;;;;11.52;7.53;;;6.50;99.90;;;;;;21085562;28;20097;-46
2021/04/19 13:36:04;;;;;;;13.38;8.35;;;6.30;99.90;;;;;;21083847;28;20062;-43
2021/04/19 13:46:09;;;;;;;9.23;6.97;;;7.30;99.90;;;;;;21083932;28;20040;-44
2021/04/19 13:56:10;;;;;;;8.27;4.90;;;8.50;99.90;;;;;;21035568;28;20070;-43
2021/04/19 14:06:12;;;;;;;12.02;8.57;;;8.10;99.90;;;;;;21082211;28;20039;-44
2021/04/19 14:16:14;;;;;;;10.88;8.02;;;7.30;99.90;;;;;;21076189;28;20504;-44
2021/04/19 14:26:16;;;;;;;13.73;7.22;;;7.00;99.90;;;;;;20996624;28;20083;-43
2021/04/19 14:36:18;;;;;;;8.93;6.68;;;6.60;99.90;;;;;;20978911;28;20086;-45
2021/04/19 14:46:20;;;;;;;8.88;6.82;;;6.50;99.90;;;;;;20995130;28;20090;-44
2021/04/19 14:56:22;;;;;;;8.38;6.40;;;7.80;99.90;;;;;;20994395;28;20110;-44
2021/04/19 15:06:24;;;;;;;8.70;6.32;;;9.00;99.90;;;;;;20993380;28;20106;-48
2021/04/19 15:16:27;;;;;;;7.03;5.30;;;8.50;99.90;;;;;;20999465;28;20125;-45
2021/04/19 15:26:30;;;;;;;10.20;6.65;;;9.10;99.90;;;;;;21075760;28;20089;-44
2021/04/19 15:36:32;;;;;;;8.40;6.40;;;8.50;99.90;;;;;;21075133;28;20036;-47
2021/04/19 15:46:34;;;;;;;11.95;7.07;;;7.90;99.90;;;;;;21074347;28;20557;-44
2021/04/19 15:56:35;;;;;;;9.18;6.47;;;7.30;99.90;;;;;;21055518;28;20399;-44
2021/04/19 16:06:38;;;;;;;10.20;7.38;;;7.40;99.90;;;;;;21072578;28;20086;-49
2021/04/19 16:16:40;;;;;;;10.77;7.57;;;7.50;99.90;;;;;;21063900;28;20102;-46
2021/04/19 16:26:42;;;;;;;9.90;7.65;;;7.10;99.90;;;;;;20988719;28;20036;-46
2021/04/19 16:36:44;;;;;;;11.52;7.85;;;6.90;99.90;;;;;;20988355;28;20036;-44
2021/04/19 16:46:45;;;;;;;10.02;7.00;;;6.60;99.90;;;;;;20988152;28;20025;-44
2021/04/19 16:56:47;;;;;;;15.10;8.05;;;6.30;99.90;;;;;;20987619;28;20033;-44
2021/04/19 17:06:49;;;;;;;10.20;7.57;;;6.00;99.90;;;;;;20986894;28;20040;-44
2021/04/19 17:16:51;;;;;;;11.32;7.88;;;5.50;99.90;;;;;;21009982;28;20109;-48
2021/04/19 17:26:56;;;;;;;16.33;8.38;;;4.90;99.90;;;;;;21085122;28;20059;-44
2021/04/19 17:36:58;;;;;;;12.68;8.30;;;4.10;99.90;;;;;;21084644;28;20029;-44
2021/04/19 17:47:01;;;;;;;9.45;5.45;;;3.40;99.90;;;;;;21084934;28;20086;-45
2021/04/19 17:57:04;;;;;;;9.50;6.18;;;3.10;99.90;;;;;;21064495;28;20124;-44
2021/04/19 18:07:06;;;;;;;10.75;6.47;;;2.60;99.90;;;;;;21064209;28;20069;-45
2021/04/19 18:17:08;;;;;;;9.95;6.35;;;2.20;99.90;;;;;;21081216;28;20116;-43
2021/04/19 18:27:10;;;;;;;9.75;6.13;;;1.90;99.90;;;;;;21080493;28;20479;-45
2021/04/19 18:37:13;;;;;;;10.68;6.75;;;1.70;99.90;;;;;;21079726;28;20062;-43
2021/04/19 18:47:15;;;;;;;10.20;6.82;;;1.60;99.90;;;;;;21078958;28;20028;-43
2021/04/19 18:57:19;;;;;;;9.75;6.28;;;1.70;99.90;;;;;;21078026;28;20089;-45
2021/04/19 19:07:21;;;;;;;9.48;5.55;;;1.50;99.90;;;;;;21077378;28;20560;-45
2021/04/19 19:17:25;;;;;;;7.55;4.78;;;1.30;99.90;;;;;;21061234;28;20090;-43
2021/04/19 19:27:31;;;;;;;10.25;5.28;;;1.20;99.90;;;;;;20974321;28;20040;-47
2021/04/19 19:37:37;;;;;;;10.23;5.55;;;1.00;99.90;;;;;;20990854;28;20033;-43
2021/04/19 19:47:44;;;;;;;8.73;5.28;;;0.90;99.90;;;;;;20990428;28;20093;-42
2021/04/19 19:57:46;;;;;;;7.50;5.10;;;0.80;99.90;;;;;;20972100;28;20036;-48
2021/04/19 20:07:48;;;;;;;12.15;6.97;;;1.00;99.90;;;;;;20989662;28;20044;-43
2021/04/19 20:17:51;;;;;;;10.82;6.65;;;1.10;99.90;;;;;;20989379;28;20399;-43
2021/04/19 20:27:52;;;;;;;12.60;7.53;;;1.20;99.90;;;;;;21053982;28;20028;-42
2021/04/19 20:37:55;;;;;;;9.65;6.22;;;1.50;99.90;;;;;;21053300;28;20056;-46
2021/04/19 20:47:59;;;;;;;8.95;5.15;;;1.80;99.90;;;;;;21079737;28;20040;-46
2021/04/19 20:58:01;;;;;;;11.15;5.75;;;1.70;99.90;;;;;;21087649;28;20448;-43
2021/04/19 21:08:03;;;;;;;8.23;4.68;;;1.60;99.90;;;;;;21086860;28;20024;-46
2021/04/19 21:18:05;;;;;;;6.95;4.30;;;1.50;99.90;;;;;;21065432;28;20049;-44
2021/04/19 21:28:07;;;;;;;6.55;4.13;;;1.20;99.90;;;;;;21001535;28;20040;-44
2021/04/19 21:38:08;;;;;;;8.52;4.43;;;1.20;99.90;;;;;;21000462;28;20439;-43
2021/04/19 21:48:11;;;;;;;7.40;4.50;;;1.10;99.90;;;;;;21001299;28;20036;-43
2021/04/19 21:58:13;;;;;;;5.95;3.92;;;1.00;99.90;;;;;;20997993;28;20036;-44
2021/04/19 22:08:15;;;;;;;6.18;4.15;;;0.90;99.90;;;;;;20998428;28;20049;-43
2021/04/19 22:18:18;;;;;;;6.03;3.97;;;0.80;99.90;;;;;;20928132;28;20053;-45
2021/04/19 22:28:27;;;;;;;8.40;4.28;;;0.60;99.90;;;;;;20997193;28;20085;-44
2021/04/19 22:38:29;;;;;;;7.07;4.47;;;0.50;99.90;;;;;;20995915;28;20040;-43
2021/04/19 22:48:30;;;;;;;11.38;6.28;;;0.40;99.90;;;;;;20995209;28;20040;-44
2021/04/19 22:58:32;;;;;;;11.38;6.40;;;0.30;99.90;;;;;;20994283;28;20044;-44
2021/04/19 23:08:34;;;;;;;11.98;6.68;;;0.40;99.90;;;;;;20993387;28;20161;-44
2021/04/19 23:18:36;;;;;;;10.75;6.05;;;0.20;99.90;;;;;;21045150;28;20048;-44
2021/04/19 23:28:37;;;;;;;12.32;6.47;;;0.20;99.90;;;;;;20992051;28;20385;-50
2021/04/19 23:38:39;;;;;;;8.13;5.10;;;0.20;99.90;;;;;;20991395;28;20545;-43
2021/04/19 23:48:41;;;;;;;8.90;5.63;;;0.20;99.90;;;;;;20990850;28;20471;-43
2021/04/19 23:58:43;;;;;;;12.02;6.68;;;0.20;99.90;;;;;;20990232;28;20094;-43
